Startpagina
METAR-TAF:

METAR-TAF

Vliegvelden :

Luchthaven Pointe-Noire

Pointe-Noire, Congo

breedte: 04-49S, lengte: 011-54E, hoogte: 17 m

Actueel weer

Dit bericht is 1 uur en het 2 minuten geleden gemaakt, om 13:00 UTC
Wind 8 kt uit het westzuidwesten, variërend tussen het zuiden en het westen
Temperatuur 31°C
Vochtigheid 79%
Druk 1010 hPa
Zicht 10 km of meer
Verspreide wolken op 1600 ft
Weinig wolken op 3000 ft, Cumulonimbus.

METAR: FCPP 261300Z 24008KT 190V270 9999 SCT016 FEW030CB 31/27 Q1010 NOSIG

Tijdstip: 15:02 (14:02 UTC)

Verwachting

Dit bericht is 3 uur en het 2 minuten geleden gemaakt, om 11:00 UTC
Verwachting geldig van 26 om 12 UTC tot 27 om 12 UTC
Wind 5 kt uit het zuidzuidwesten
Zicht: 9000 m
Verspreide wolken op 2000 ft
Weinig wolken op 3000 ft, Cumulonimbus.
Tijdelijke
van 26 om 16 UTC tot 26 om 20 UTC
onweer
Wijzigt naar
van 26 om 21 UTC tot 26 om 23 UTC
Verspreide wolken op 1800 ft

TAF: FCPP 261100Z 2612/2712 20005KT 9000 SCT020 FEW030CB TEMPO 2616/2620 TS BECMG 2621/2623 SCT018

Waarnemingen en weersverwachtingen van meer dan 4000 vliegvelden (METAR en TAF).

De beschikbare stations zijn de gele en rode punten op de kaart.

Ga met uw muis naar het station om de naam te zien.

Klik dan om waarnemingen en weersverwachtingen te zien.

kaart wijzigen: klik op de groene knoppen met een zwart kruis om in te zoomen, op de groene knop met een streepje om uit te zoomen of op de groene pijlen voor aangrenzende kaarten.


METAR-TAF: